sensor_id;sensor_type;location;lat;lon;timestamp;P1;durP1;ratioP1;P2;durP2;ratioP2
54005;SDS011;39919;38.160;-122.260;2023-07-31T00:04:20;8.65;;;1.85;;
54005;SDS011;39919;38.160;-122.260;2023-07-31T00:09:19;4.72;;;1.17;;
54005;SDS011;39919;38.160;-122.260;2023-07-31T00:11:56;6.95;;;2.22;;
54005;SDS011;39919;38.160;-122.260;2023-07-31T00:14:33;5.53;;;1.63;;
54005;SDS011;39919;38.160;-122.260;2023-07-31T00:20:13;11.57;;;1.90;;
54005;SDS011;39919;38.160;-122.260;2023-07-31T00:22:47;7.50;;;1.50;;
54005;SDS011;39919;38.160;-122.260;2023-07-31T00:25:20;7.50;;;1.40;;
54005;SDS011;39919;38.160;-122.260;2023-07-31T00:27:51;8.30;;;1.90;;
54005;SDS011;39919;38.160;-122.260;2023-07-31T00:30:24;6.43;;;1.42;;
54005;SDS011;39919;38.160;-122.260;2023-07-31T00:32:57;6.40;;;1.45;;
54005;SDS011;39919;38.160;-122.260;2023-07-31T00:35:28;6.45;;;1.65;;
54005;SDS011;39919;38.160;-122.260;2023-07-31T00:37:57;8.48;;;1.67;;
54005;SDS011;39919;38.160;-122.260;2023-07-31T00:40:28;9.27;;;2.45;;
54005;SDS011;39919;38.160;-122.260;2023-07-31T00:42:57;6.60;;;1.77;;
54005;SDS011;39919;38.160;-122.260;2023-07-31T00:45:26;11.23;;;2.28;;
54005;SDS011;39919;38.160;-122.260;2023-07-31T00:47:55;7.43;;;1.80;;
54005;SDS011;39919;38.160;-122.260;2023-07-31T00:50:24;12.43;;;2.63;;
54005;SDS011;39919;38.160;-122.260;2023-07-31T00:53:04;9.13;;;1.90;;
54005;SDS011;39919;38.160;-122.260;2023-07-31T00:55:37;8.00;;;2.65;;
54005;SDS011;39919;38.160;-122.260;2023-07-31T00:58:08;7.47;;;2.13;;
54005;SDS011;39919;38.160;-122.260;2023-07-31T01:00:37;9.38;;;1.65;;
54005;SDS011;39919;38.160;-122.260;2023-07-31T01:03:16;9.73;;;2.33;;
54005;SDS011;39919;38.160;-122.260;2023-07-31T01:05:47;7.93;;;2.15;;
54005;SDS011;39919;38.160;-122.260;2023-07-31T01:08:20;6.60;;;1.67;;
54005;SDS011;39919;38.160;-122.260;2023-07-31T01:13:36;7.82;;;1.80;;
54005;SDS011;39919;38.160;-122.260;2023-07-31T01:16:08;5.13;;;1.58;;
54005;SDS011;39919;38.160;-122.260;2023-07-31T01:18:45;11.50;;;2.35;;
54005;SDS011;39919;38.160;-122.260;2023-07-31T01:21:22;8.05;;;2.08;;
54005;SDS011;39919;38.160;-122.260;2023-07-31T01:23:57;4.22;;;1.50;;
54005;SDS011;39919;38.160;-122.260;2023-07-31T01:26:38;8.32;;;1.90;;
54005;SDS011;39919;38.160;-122.260;2023-07-31T01:29:26;9.40;;;1.92;;
54005;SDS011;39919;38.160;-122.260;2023-07-31T01:31:58;4.80;;;1.42;;
54005;SDS011;39919;38.160;-122.260;2023-07-31T01:34:28;6.78;;;2.05;;
54005;SDS011;39919;38.160;-122.260;2023-07-31T01:36:58;10.90;;;2.17;;
54005;SDS011;39919;38.160;-122.260;2023-07-31T01:42:01;9.77;;;2.63;;
54005;SDS011;39919;38.160;-122.260;2023-07-31T01:44:32;9.18;;;2.03;;
54005;SDS011;39919;38.160;-122.260;2023-07-31T01:47:01;8.93;;;2.15;;
54005;SDS011;39919;38.160;-122.260;2023-07-31T01:49:31;14.65;;;2.80;;
54005;SDS011;39919;38.160;-122.260;2023-07-31T01:52:02;8.68;;;2.58;;
54005;SDS011;39919;38.160;-122.260;2023-07-31T01:57:45;14.57;;;2.55;;
54005;SDS011;39919;38.160;-122.260;2023-07-31T02:00:14;8.48;;;2.55;;
54005;SDS011;39919;38.160;-122.260;2023-07-31T02:02:47;11.63;;;2.72;;
54005;SDS011;39919;38.160;-122.260;2023-07-31T02:05:18;10.38;;;2.45;;
54005;SDS011;39919;38.160;-122.260;2023-07-31T02:07:48;8.35;;;2.20;;
54005;SDS011;39919;38.160;-122.260;2023-07-31T02:10:19;11.30;;;2.38;;
54005;SDS011;39919;38.160;-122.260;2023-07-31T02:12:55;17.40;;;3.05;;
54005;SDS011;39919;38.160;-122.260;2023-07-31T02:15:29;11.80;;;2.63;;
54005;SDS011;39919;38.160;-122.260;2023-07-31T02:18:00;9.90;;;2.53;;
54005;SDS011;39919;38.160;-122.260;2023-07-31T02:20:29;16.40;;;2.85;;
54005;SDS011;39919;38.160;-122.260;2023-07-31T02:23:00;14.30;;;3.10;;
54005;SDS011;39919;38.160;-122.260;2023-07-31T02:25:30;12.30;;;3.03;;
54005;SDS011;39919;38.160;-122.260;2023-07-31T02:28:20;11.82;;;3.00;;
54005;SDS011;39919;38.160;-122.260;2023-07-31T02:35:59;13.20;;;3.38;;
54005;SDS011;39919;38.160;-122.260;2023-07-31T02:38:31;12.73;;;2.45;;
54005;SDS011;39919;38.160;-122.260;2023-07-31T02:41:03;7.35;;;2.38;;
54005;SDS011;39919;38.160;-122.260;2023-07-31T02:43:36;11.10;;;3.03;;
54005;SDS011;39919;38.160;-122.260;2023-07-31T02:46:08;9.15;;;2.70;;
54005;SDS011;39919;38.160;-122.260;2023-07-31T02:48:43;17.90;;;3.65;;
54005;SDS011;39919;38.160;-122.260;2023-07-31T02:51:15;13.30;;;2.88;;
54005;SDS011;39919;38.160;-122.260;2023-07-31T02:53:53;10.65;;;2.80;;
54005;SDS011;39919;38.160;-122.260;2023-07-31T02:56:35;9.95;;;2.88;;
54005;SDS011;39919;38.160;-122.260;2023-07-31T02:59:21;12.85;;;2.30;;
54005;SDS011;39919;38.160;-122.260;2023-07-31T03:02:02;11.93;;;3.05;;
54005;SDS011;39919;38.160;-122.260;2023-07-31T03:04:32;11.63;;;3.13;;
54005;SDS011;39919;38.160;-122.260;2023-07-31T03:07:01;12.35;;;2.97;;
54005;SDS011;39919;38.160;-122.260;2023-07-31T03:09:33;13.55;;;3.67;;
54005;SDS011;39919;38.160;-122.260;2023-07-31T03:12:03;8.55;;;2.58;;
54005;SDS011;39919;38.160;-122.260;2023-07-31T03:14:34;14.35;;;3.33;;
54005;SDS011;39919;38.160;-122.260;2023-07-31T03:17:05;11.18;;;2.90;;
54005;SDS011;39919;38.160;-122.260;2023-07-31T03:19:35;11.20;;;2.63;;
54005;SDS011;39919;38.160;-122.260;2023-07-31T03:22:04;14.70;;;3.10;;
54005;SDS011;39919;38.160;-122.260;2023-07-31T03:24:34;19.65;;;3.63;;
54005;SDS011;39919;38.160;-122.260;2023-07-31T03:27:03;13.48;;;2.42;;
54005;SDS011;39919;38.160;-122.260;2023-07-31T03:29:37;14.80;;;3.70;;
54005;SDS011;39919;38.160;-122.260;2023-07-31T03:32:17;11.75;;;2.88;;
54005;SDS011;39919;38.160;-122.260;2023-07-31T03:34:46;16.10;;;3.53;;
54005;SDS011;39919;38.160;-122.260;2023-07-31T03:37:15;12.80;;;2.72;;
54005;SDS011;39919;38.160;-122.260;2023-07-31T03:39:46;10.27;;;2.40;;
54005;SDS011;39919;38.160;-122.260;2023-07-31T03:42:15;10.13;;;2.70;;
54005;SDS011;39919;38.160;-122.260;2023-07-31T03:47:16;14.32;;;2.88;;
54005;SDS011;39919;38.160;-122.260;2023-07-31T03:49:46;21.00;;;3.47;;
54005;SDS011;39919;38.160;-122.260;2023-07-31T03:52:15;14.88;;;3.15;;
54005;SDS011;39919;38.160;-122.260;2023-07-31T03:54:47;11.15;;;2.60;;
54005;SDS011;39919;38.160;-122.260;2023-07-31T03:57:23;15.35;;;3.17;;
54005;SDS011;39919;38.160;-122.260;2023-07-31T03:59:52;18.45;;;3.22;;
54005;SDS011;39919;38.160;-122.260;2023-07-31T04:02:29;8.65;;;2.70;;
54005;SDS011;39919;38.160;-122.260;2023-07-31T04:05:03;13.93;;;3.35;;
54005;SDS011;39919;38.160;-122.260;2023-07-31T04:07:32;12.88;;;2.35;;
54005;SDS011;39919;38.160;-122.260;2023-07-31T04:10:13;13.02;;;3.47;;
54005;SDS011;39919;38.160;-122.260;2023-07-31T04:12:44;22.70;;;2.92;;
54005;SDS011;39919;38.160;-122.260;2023-07-31T04:15:14;18.13;;;3.47;;
54005;SDS011;39919;38.160;-122.260;2023-07-31T04:17:45;18.73;;;4.00;;
54005;SDS011;39919;38.160;-122.260;2023-07-31T04:20:23;12.10;;;3.00;;
54005;SDS011;39919;38.160;-122.260;2023-07-31T04:22:52;17.20;;;3.67;;
54005;SDS011;39919;38.160;-122.260;2023-07-31T04:25:41;24.27;;;3.42;;
54005;SDS011;39919;38.160;-122.260;2023-07-31T04:28:13;15.02;;;3.00;;
54005;SDS011;39919;38.160;-122.260;2023-07-31T04:30:45;25.13;;;4.90;;
54005;SDS011;39919;38.160;-122.260;2023-07-31T04:33:18;19.73;;;3.60;;
54005;SDS011;39919;38.160;-122.260;2023-07-31T04:35:50;24.02;;;4.07;;
54005;SDS011;39919;38.160;-122.260;2023-07-31T04:38:30;17.67;;;3.63;;
54005;SDS011;39919;38.160;-122.260;2023-07-31T04:41:12;22.67;;;3.88;;
54005;SDS011;39919;38.160;-122.260;2023-07-31T04:43:41;25.48;;;4.07;;
54005;SDS011;39919;38.160;-122.260;2023-07-31T04:46:10;16.70;;;3.22;;
54005;SDS011;39919;38.160;-122.260;2023-07-31T04:48:43;16.05;;;3.10;;
54005;SDS011;39919;38.160;-122.260;2023-07-31T04:51:12;16.83;;;3.30;;
54005;SDS011;39919;38.160;-122.260;2023-07-31T04:53:41;25.75;;;4.40;;
54005;SDS011;39919;38.160;-122.260;2023-07-31T04:56:11;12.32;;;2.92;;
54005;SDS011;39919;38.160;-122.260;2023-07-31T04:58:41;18.52;;;3.67;;
54005;SDS011;39919;38.160;-122.260;2023-07-31T05:01:10;18.35;;;4.10;;
54005;SDS011;39919;38.160;-122.260;2023-07-31T05:03:44;24.83;;;4.40;;
54005;SDS011;39919;38.160;-122.260;2023-07-31T05:06:13;17.60;;;3.08;;
54005;SDS011;39919;38.160;-122.260;2023-07-31T05:08:42;19.10;;;2.78;;
54005;SDS011;39919;38.160;-122.260;2023-07-31T05:11:11;19.25;;;4.03;;
54005;SDS011;39919;38.160;-122.260;2023-07-31T05:13:41;14.68;;;3.83;;
54005;SDS011;39919;38.160;-122.260;2023-07-31T05:16:10;15.43;;;3.67;;
54005;SDS011;39919;38.160;-122.260;2023-07-31T05:18:39;23.40;;;4.20;;
54005;SDS011;39919;38.160;-122.260;2023-07-31T05:21:10;24.58;;;4.05;;
54005;SDS011;39919;38.160;-122.260;2023-07-31T05:23:39;17.58;;;4.03;;
54005;SDS011;39919;38.160;-122.260;2023-07-31T05:26:08;22.98;;;4.38;;
54005;SDS011;39919;38.160;-122.260;2023-07-31T05:28:40;14.80;;;2.72;;
54005;SDS011;39919;38.160;-122.260;2023-07-31T05:31:09;20.35;;;2.90;;
54005;SDS011;39919;38.160;-122.260;2023-07-31T05:33:38;19.10;;;3.08;;
54005;SDS011;39919;38.160;-122.260;2023-07-31T05:36:07;18.00;;;3.63;;
54005;SDS011;39919;38.160;-122.260;2023-07-31T05:38:38;18.40;;;3.85;;
54005;SDS011;39919;38.160;-122.260;2023-07-31T05:41:08;21.90;;;3.50;;
54005;SDS011;39919;38.160;-122.260;2023-07-31T05:43:37;21.40;;;4.72;;
54005;SDS011;39919;38.160;-122.260;2023-07-31T05:46:06;17.10;;;3.60;;
54005;SDS011;39919;38.160;-122.260;2023-07-31T05:48:35;31.50;;;5.03;;
54005;SDS011;39919;38.160;-122.260;2023-07-31T05:51:05;27.58;;;5.07;;
54005;SDS011;39919;38.160;-122.260;2023-07-31T05:53:35;23.48;;;4.25;;
54005;SDS011;39919;38.160;-122.260;2023-07-31T05:56:06;20.40;;;3.97;;
54005;SDS011;39919;38.160;-122.260;2023-07-31T05:58:35;21.95;;;4.20;;
54005;SDS011;39919;38.160;-122.260;2023-07-31T06:01:04;12.63;;;3.03;;
54005;SDS011;39919;38.160;-122.260;2023-07-31T06:03:33;29.85;;;4.88;;
54005;SDS011;39919;38.160;-122.260;2023-07-31T06:06:02;20.55;;;3.28;;
54005;SDS011;39919;38.160;-122.260;2023-07-31T06:08:32;26.10;;;4.57;;
54005;SDS011;39919;38.160;-122.260;2023-07-31T06:11:02;29.95;;;4.47;;
54005;SDS011;39919;38.160;-122.260;2023-07-31T06:13:33;25.52;;;4.53;;
54005;SDS011;39919;38.160;-122.260;2023-07-31T06:16:02;20.08;;;3.78;;
54005;SDS011;39919;38.160;-122.260;2023-07-31T06:18:32;18.50;;;4.10;;
54005;SDS011;39919;38.160;-122.260;2023-07-31T06:21:01;24.15;;;3.72;;
54005;SDS011;39919;38.160;-122.260;2023-07-31T06:23:30;19.92;;;3.25;;
54005;SDS011;39919;38.160;-122.260;2023-07-31T06:25:59;17.25;;;3.83;;
54005;SDS011;39919;38.160;-122.260;2023-07-31T06:28:30;17.25;;;4.07;;
54005;SDS011;39919;38.160;-122.260;2023-07-31T06:31:00;15.35;;;2.47;;
54005;SDS011;39919;38.160;-122.260;2023-07-31T06:33:29;23.73;;;3.55;;
54005;SDS011;39919;38.160;-122.260;2023-07-31T06:35:58;16.45;;;3.75;;
54005;SDS011;39919;38.160;-122.260;2023-07-31T06:38:27;20.90;;;4.00;;
54005;SDS011;39919;38.160;-122.260;2023-07-31T06:40:56;25.10;;;4.32;;
54005;SDS011;39919;38.160;-122.260;2023-07-31T06:43:27;16.80;;;3.63;;
54005;SDS011;39919;38.160;-122.260;2023-07-31T06:45:56;20.52;;;3.22;;
54005;SDS011;39919;38.160;-122.260;2023-07-31T06:48:32;22.40;;;3.92;;
54005;SDS011;39919;38.160;-122.260;2023-07-31T06:51:02;19.33;;;3.38;;
54005;SDS011;39919;38.160;-122.260;2023-07-31T06:53:31;22.80;;;4.30;;
54005;SDS011;39919;38.160;-122.260;2023-07-31T06:56:00;18.33;;;4.55;;
54005;SDS011;39919;38.160;-122.260;2023-07-31T06:58:31;25.52;;;5.03;;
54005;SDS011;39919;38.160;-122.260;2023-07-31T07:01:00;20.10;;;3.90;;
54005;SDS011;39919;38.160;-122.260;2023-07-31T07:03:29;23.70;;;3.92;;
54005;SDS011;39919;38.160;-122.260;2023-07-31T07:06:00;17.75;;;3.67;;
54005;SDS011;39919;38.160;-122.260;2023-07-31T07:08:29;24.38;;;4.43;;
54005;SDS011;39919;38.160;-122.260;2023-07-31T07:10:57;19.48;;;3.85;;
54005;SDS011;39919;38.160;-122.260;2023-07-31T07:13:26;25.38;;;4.00;;
54005;SDS011;39919;38.160;-122.260;2023-07-31T07:15:59;16.90;;;3.38;;
54005;SDS011;39919;38.160;-122.260;2023-07-31T07:18:28;17.52;;;3.83;;
54005;SDS011;39919;38.160;-122.260;2023-07-31T07:20:57;20.67;;;4.35;;
54005;SDS011;39919;38.160;-122.260;2023-07-31T07:23:28;19.85;;;3.15;;
54005;SDS011;39919;38.160;-122.260;2023-07-31T07:25:56;18.83;;;3.17;;
54005;SDS011;39919;38.160;-122.260;2023-07-31T07:28:25;28.48;;;4.50;;
54005;SDS011;39919;38.160;-122.260;2023-07-31T07:30:57;25.13;;;3.95;;
54005;SDS011;39919;38.160;-122.260;2023-07-31T07:33:26;16.35;;;3.17;;
54005;SDS011;39919;38.160;-122.260;2023-07-31T07:35:55;18.85;;;4.45;;
54005;SDS011;39919;38.160;-122.260;2023-07-31T07:38:28;21.40;;;3.55;;
54005;SDS011;39919;38.160;-122.260;2023-07-31T07:40:57;20.10;;;3.42;;
54005;SDS011;39919;38.160;-122.260;2023-07-31T07:43:27;22.48;;;4.00;;
54005;SDS011;39919;38.160;-122.260;2023-07-31T07:45:57;21.30;;;2.78;;
54005;SDS011;39919;38.160;-122.260;2023-07-31T07:48:28;24.70;;;4.55;;
54005;SDS011;39919;38.160;-122.260;2023-07-31T07:50:57;28.08;;;4.43;;
54005;SDS011;39919;38.160;-122.260;2023-07-31T07:53:26;18.40;;;3.72;;
54005;SDS011;39919;38.160;-122.260;2023-07-31T07:55:55;24.05;;;3.08;;
54005;SDS011;39919;38.160;-122.260;2023-07-31T07:58:24;18.30;;;3.28;;
54005;SDS011;39919;38.160;-122.260;2023-07-31T08:00:53;17.92;;;2.42;;
54005;SDS011;39919;38.160;-122.260;2023-07-31T08:03:24;20.75;;;4.15;;
54005;SDS011;39919;38.160;-122.260;2023-07-31T08:05:57;19.38;;;4.07;;
54005;SDS011;39919;38.160;-122.260;2023-07-31T08:08:27;20.95;;;4.05;;
54005;SDS011;39919;38.160;-122.260;2023-07-31T08:10:56;24.95;;;4.38;;
54005;SDS011;39919;38.160;-122.260;2023-07-31T08:13:26;25.08;;;4.20;;
54005;SDS011;39919;38.160;-122.260;2023-07-31T08:15:55;19.27;;;4.15;;
54005;SDS011;39919;38.160;-122.260;2023-07-31T08:18:25;16.60;;;3.50;;
54005;SDS011;39919;38.160;-122.260;2023-07-31T08:20:55;22.30;;;3.72;;
54005;SDS011;39919;38.160;-122.260;2023-07-31T08:23:24;26.35;;;3.97;;
54005;SDS011;39919;38.160;-122.260;2023-07-31T08:25:53;21.40;;;3.22;;
54005;SDS011;39919;38.160;-122.260;2023-07-31T08:28:22;20.42;;;3.78;;
54005;SDS011;39919;38.160;-122.260;2023-07-31T08:30:51;17.90;;;3.38;;
54005;SDS011;39919;38.160;-122.260;2023-07-31T08:33:20;21.55;;;4.00;;
54005;SDS011;39919;38.160;-122.260;2023-07-31T08:35:51;22.50;;;3.80;;
54005;SDS011;39919;38.160;-122.260;2023-07-31T08:38:20;23.40;;;4.70;;
54005;SDS011;39919;38.160;-122.260;2023-07-31T08:40:51;22.98;;;4.18;;
54005;SDS011;39919;38.160;-122.260;2023-07-31T08:43:20;21.02;;;3.40;;
54005;SDS011;39919;38.160;-122.260;2023-07-31T08:45:52;19.20;;;3.88;;
54005;SDS011;39919;38.160;-122.260;2023-07-31T08:48:22;17.95;;;3.38;;
54005;SDS011;39919;38.160;-122.260;2023-07-31T08:50:53;21.15;;;4.53;;
54005;SDS011;39919;38.160;-122.260;2023-07-31T08:53:22;26.42;;;4.28;;
54005;SDS011;39919;38.160;-122.260;2023-07-31T08:55:52;17.52;;;3.58;;
54005;SDS011;39919;38.160;-122.260;2023-07-31T08:58:22;29.33;;;4.45;;
54005;SDS011;39919;38.160;-122.260;2023-07-31T09:00:52;22.60;;;3.90;;
54005;SDS011;39919;38.160;-122.260;2023-07-31T09:03:23;23.05;;;3.40;;
54005;SDS011;39919;38.160;-122.260;2023-07-31T09:05:56;26.17;;;3.55;;
54005;SDS011;39919;38.160;-122.260;2023-07-31T09:08:25;20.23;;;3.50;;
54005;SDS011;39919;38.160;-122.260;2023-07-31T09:10:59;21.30;;;4.68;;
54005;SDS011;39919;38.160;-122.260;2023-07-31T09:13:29;21.55;;;4.28;;
54005;SDS011;39919;38.160;-122.260;2023-07-31T09:15:59;22.40;;;4.85;;
54005;SDS011;39919;38.160;-122.260;2023-07-31T09:18:28;24.02;;;4.20;;
54005;SDS011;39919;38.160;-122.260;2023-07-31T09:21:02;24.63;;;4.32;;
54005;SDS011;39919;38.160;-122.260;2023-07-31T09:23:40;17.83;;;3.00;;
54005;SDS011;39919;38.160;-122.260;2023-07-31T09:26:10;27.42;;;3.97;;
54005;SDS011;39919;38.160;-122.260;2023-07-31T09:28:56;22.83;;;4.57;;
54005;SDS011;39919;38.160;-122.260;2023-07-31T09:31:38;24.75;;;4.38;;
54005;SDS011;39919;38.160;-122.260;2023-07-31T09:34:08;27.38;;;4.65;;
54005;SDS011;39919;38.160;-122.260;2023-07-31T09:36:45;25.88;;;4.53;;
54005;SDS011;39919;38.160;-122.260;2023-07-31T09:39:16;19.40;;;3.60;;
54005;SDS011;39919;38.160;-122.260;2023-07-31T09:41:47;24.85;;;4.20;;
54005;SDS011;39919;38.160;-122.260;2023-07-31T09:47:20;29.65;;;4.85;;
54005;SDS011;39919;38.160;-122.260;2023-07-31T09:49:51;19.65;;;4.20;;
54005;SDS011;39919;38.160;-122.260;2023-07-31T09:52:22;28.90;;;4.47;;
54005;SDS011;39919;38.160;-122.260;2023-07-31T09:54:53;24.80;;;4.35;;
54005;SDS011;39919;38.160;-122.260;2023-07-31T09:57:23;22.70;;;4.68;;
54005;SDS011;39919;38.160;-122.260;2023-07-31T09:59:52;23.77;;;4.70;;
54005;SDS011;39919;38.160;-122.260;2023-07-31T10:02:22;19.67;;;3.45;;
54005;SDS011;39919;38.160;-122.260;2023-07-31T10:04:51;20.05;;;4.20;;
54005;SDS011;39919;38.160;-122.260;2023-07-31T10:07:26;18.27;;;3.35;;
54005;SDS011;39919;38.160;-122.260;2023-07-31T10:09:58;29.42;;;5.15;;
54005;SDS011;39919;38.160;-122.260;2023-07-31T10:12:28;14.90;;;2.53;;
54005;SDS011;39919;38.160;-122.260;2023-07-31T10:15:00;19.27;;;3.20;;
54005;SDS011;39919;38.160;-122.260;2023-07-31T10:17:30;18.10;;;3.60;;
54005;SDS011;39919;38.160;-122.260;2023-07-31T10:19:59;26.17;;;4.90;;
54005;SDS011;39919;38.160;-122.260;2023-07-31T10:22:32;24.60;;;4.85;;
54005;SDS011;39919;38.160;-122.260;2023-07-31T10:25:03;15.90;;;2.90;;
54005;SDS011;39919;38.160;-122.260;2023-07-31T10:27:35;17.63;;;4.00;;
54005;SDS011;39919;38.160;-122.260;2023-07-31T10:30:06;23.45;;;4.13;;
54005;SDS011;39919;38.160;-122.260;2023-07-31T10:32:39;23.08;;;4.05;;
54005;SDS011;39919;38.160;-122.260;2023-07-31T10:35:11;18.70;;;4.07;;
54005;SDS011;39919;38.160;-122.260;2023-07-31T10:37:43;21.77;;;3.90;;
54005;SDS011;39919;38.160;-122.260;2023-07-31T10:40:13;25.08;;;3.85;;
54005;SDS011;39919;38.160;-122.260;2023-07-31T10:42:49;22.70;;;3.78;;
54005;SDS011;39919;38.160;-122.260;2023-07-31T10:45:26;25.80;;;4.78;;
54005;SDS011;39919;38.160;-122.260;2023-07-31T10:48:02;22.90;;;4.05;;
54005;SDS011;39919;38.160;-122.260;2023-07-31T10:50:32;24.40;;;4.28;;
54005;SDS011;39919;38.160;-122.260;2023-07-31T10:53:06;18.95;;;3.10;;
54005;SDS011;39919;38.160;-122.260;2023-07-31T10:55:51;18.00;;;3.17;;
54005;SDS011;39919;38.160;-122.260;2023-07-31T10:58:20;23.63;;;4.57;;
54005;SDS011;39919;38.160;-122.260;2023-07-31T11:00:50;21.75;;;4.35;;
54005;SDS011;39919;38.160;-122.260;2023-07-31T11:03:25;24.20;;;4.15;;
54005;SDS011;39919;38.160;-122.260;2023-07-31T11:06:00;21.65;;;3.75;;
54005;SDS011;39919;38.160;-122.260;2023-07-31T11:08:32;17.42;;;3.42;;
54005;SDS011;39919;38.160;-122.260;2023-07-31T11:11:05;23.98;;;4.20;;
54005;SDS011;39919;38.160;-122.260;2023-07-31T11:13:39;19.27;;;4.97;;
54005;SDS011;39919;38.160;-122.260;2023-07-31T11:16:10;27.17;;;4.53;;
54005;SDS011;39919;38.160;-122.260;2023-07-31T11:18:40;14.70;;;3.28;;
54005;SDS011;39919;38.160;-122.260;2023-07-31T11:21:12;25.40;;;5.20;;
54005;SDS011;39919;38.160;-122.260;2023-07-31T11:23:45;28.23;;;4.88;;
54005;SDS011;39919;38.160;-122.260;2023-07-31T11:26:14;24.17;;;4.20;;
54005;SDS011;39919;38.160;-122.260;2023-07-31T11:28:46;25.45;;;4.00;;
54005;SDS011;39919;38.160;-122.260;2023-07-31T11:31:15;25.58;;;4.97;;
54005;SDS011;39919;38.160;-122.260;2023-07-31T11:33:45;24.42;;;4.75;;
54005;SDS011;39919;38.160;-122.260;2023-07-31T11:36:14;31.20;;;4.32;;
54005;SDS011;39919;38.160;-122.260;2023-07-31T11:38:46;29.60;;;4.85;;
54005;SDS011;39919;38.160;-122.260;2023-07-31T11:41:15;24.95;;;3.92;;
54005;SDS011;39919;38.160;-122.260;2023-07-31T11:43:45;16.02;;;3.90;;
54005;SDS011;39919;38.160;-122.260;2023-07-31T11:46:14;22.65;;;3.90;;
54005;SDS011;39919;38.160;-122.260;2023-07-31T11:48:44;17.25;;;3.65;;
54005;SDS011;39919;38.160;-122.260;2023-07-31T11:51:14;21.42;;;3.95;;
54005;SDS011;39919;38.160;-122.260;2023-07-31T11:53:44;23.73;;;4.72;;
54005;SDS011;39919;38.160;-122.260;2023-07-31T11:56:17;19.48;;;4.50;;
54005;SDS011;39919;38.160;-122.260;2023-07-31T11:58:49;19.35;;;2.97;;
54005;SDS011;39919;38.160;-122.260;2023-07-31T12:01:21;19.63;;;3.92;;
54005;SDS011;39919;38.160;-122.260;2023-07-31T12:03:51;20.55;;;3.20;;
54005;SDS011;39919;38.160;-122.260;2023-07-31T12:06:21;24.85;;;4.60;;
54005;SDS011;39919;38.160;-122.260;2023-07-31T12:09:02;26.40;;;3.70;;
54005;SDS011;39919;38.160;-122.260;2023-07-31T12:11:32;20.70;;;3.67;;
54005;SDS011;39919;38.160;-122.260;2023-07-31T12:14:20;21.85;;;4.53;;
54005;SDS011;39919;38.160;-122.260;2023-07-31T12:16:54;26.45;;;4.28;;
54005;SDS011;39919;38.160;-122.260;2023-07-31T12:19:25;30.80;;;5.45;;
54005;SDS011;39919;38.160;-122.260;2023-07-31T12:21:55;16.67;;;4.03;;
54005;SDS011;39919;38.160;-122.260;2023-07-31T12:24:27;17.88;;;4.10;;
54005;SDS011;39919;38.160;-122.260;2023-07-31T12:26:56;19.50;;;3.90;;
54005;SDS011;39919;38.160;-122.260;2023-07-31T12:29:33;19.58;;;4.03;;
54005;SDS011;39919;38.160;-122.260;2023-07-31T12:32:03;16.13;;;3.25;;
54005;SDS011;39919;38.160;-122.260;2023-07-31T12:34:35;25.45;;;5.15;;
54005;SDS011;39919;38.160;-122.260;2023-07-31T12:37:10;25.60;;;3.53;;
54005;SDS011;39919;38.160;-122.260;2023-07-31T12:39:41;16.27;;;3.08;;
54005;SDS011;39919;38.160;-122.260;2023-07-31T12:42:10;21.85;;;3.70;;
54005;SDS011;39919;38.160;-122.260;2023-07-31T12:44:40;24.05;;;4.80;;
54005;SDS011;39919;38.160;-122.260;2023-07-31T12:47:09;17.83;;;3.28;;
54005;SDS011;39919;38.160;-122.260;2023-07-31T12:49:38;20.83;;;4.30;;
54005;SDS011;39919;38.160;-122.260;2023-07-31T12:52:07;23.38;;;4.30;;
54005;SDS011;39919;38.160;-122.260;2023-07-31T12:54:36;21.40;;;3.13;;
54005;SDS011;39919;38.160;-122.260;2023-07-31T12:57:07;16.08;;;2.60;;
54005;SDS011;39919;38.160;-122.260;2023-07-31T12:59:36;21.45;;;3.63;;
54005;SDS011;39919;38.160;-122.260;2023-07-31T13:02:05;16.92;;;2.92;;
54005;SDS011;39919;38.160;-122.260;2023-07-31T13:04:35;19.15;;;3.33;;
54005;SDS011;39919;38.160;-122.260;2023-07-31T13:07:04;17.63;;;3.00;;
54005;SDS011;39919;38.160;-122.260;2023-07-31T13:09:33;20.92;;;3.90;;
54005;SDS011;39919;38.160;-122.260;2023-07-31T13:12:03;14.98;;;3.00;;
54005;SDS011;39919;38.160;-122.260;2023-07-31T13:14:34;16.17;;;2.88;;
54005;SDS011;39919;38.160;-122.260;2023-07-31T13:17:03;14.52;;;3.08;;
54005;SDS011;39919;38.160;-122.260;2023-07-31T13:19:32;26.77;;;4.68;;
54005;SDS011;39919;38.160;-122.260;2023-07-31T13:22:01;18.20;;;3.20;;
54005;SDS011;39919;38.160;-122.260;2023-07-31T13:24:31;23.23;;;4.00;;
54005;SDS011;39919;38.160;-122.260;2023-07-31T13:27:00;26.52;;;3.95;;
54005;SDS011;39919;38.160;-122.260;2023-07-31T13:29:29;17.05;;;2.70;;
54005;SDS011;39919;38.160;-122.260;2023-07-31T13:32:00;20.77;;;3.70;;
54005;SDS011;39919;38.160;-122.260;2023-07-31T13:34:29;31.10;;;4.43;;
54005;SDS011;39919;38.160;-122.260;2023-07-31T13:36:58;17.02;;;2.63;;
54005;SDS011;39919;38.160;-122.260;2023-07-31T13:39:28;23.27;;;4.10;;
54005;SDS011;39919;38.160;-122.260;2023-07-31T13:41:57;28.35;;;3.88;;
54005;SDS011;39919;38.160;-122.260;2023-07-31T13:44:26;31.73;;;4.30;;
54005;SDS011;39919;38.160;-122.260;2023-07-31T13:46:55;22.45;;;4.22;;
54005;SDS011;39919;38.160;-122.260;2023-07-31T13:49:26;20.40;;;3.72;;
54005;SDS011;39919;38.160;-122.260;2023-07-31T13:51:55;16.50;;;3.08;;
54005;SDS011;39919;38.160;-122.260;2023-07-31T13:54:25;22.08;;;4.25;;
54005;SDS011;39919;38.160;-122.260;2023-07-31T13:56:54;17.33;;;3.05;;
54005;SDS011;39919;38.160;-122.260;2023-07-31T13:59:24;23.13;;;3.85;;
54005;SDS011;39919;38.160;-122.260;2023-07-31T14:01:53;24.63;;;4.80;;
54005;SDS011;39919;38.160;-122.260;2023-07-31T14:04:22;16.10;;;3.78;;
54005;SDS011;39919;38.160;-122.260;2023-07-31T14:06:53;18.55;;;4.05;;
54005;SDS011;39919;38.160;-122.260;2023-07-31T14:09:23;14.68;;;3.10;;
54005;SDS011;39919;38.160;-122.260;2023-07-31T14:11:52;19.38;;;3.22;;
54005;SDS011;39919;38.160;-122.260;2023-07-31T14:14:21;13.55;;;3.10;;
54005;SDS011;39919;38.160;-122.260;2023-07-31T14:16:50;28.50;;;4.35;;
54005;SDS011;39919;38.160;-122.260;2023-07-31T14:19:20;20.65;;;3.92;;
54005;SDS011;39919;38.160;-122.260;2023-07-31T14:21:50;26.98;;;5.00;;
54005;SDS011;39919;38.160;-122.260;2023-07-31T14:24:21;17.38;;;3.15;;
54005;SDS011;39919;38.160;-122.260;2023-07-31T14:26:50;10.18;;;2.25;;
54005;SDS011;39919;38.160;-122.260;2023-07-31T14:29:19;11.98;;;2.40;;
54005;SDS011;39919;38.160;-122.260;2023-07-31T14:31:49;14.60;;;2.95;;
54005;SDS011;39919;38.160;-122.260;2023-07-31T14:34:18;14.50;;;2.67;;
54005;SDS011;39919;38.160;-122.260;2023-07-31T14:36:48;22.83;;;4.47;;
54005;SDS011;39919;38.160;-122.260;2023-07-31T14:39:18;22.85;;;3.70;;
54005;SDS011;39919;38.160;-122.260;2023-07-31T14:41:47;15.93;;;3.45;;
54005;SDS011;39919;38.160;-122.260;2023-07-31T14:44:16;14.82;;;2.92;;
54005;SDS011;39919;38.160;-122.260;2023-07-31T14:46:46;16.08;;;3.35;;
54005;SDS011;39919;38.160;-122.260;2023-07-31T14:49:15;15.88;;;3.10;;